createdAt,value
2022-11-26T00:00:15.072Z,25.75
2022-11-26T00:02:43.137Z,24.60
2022-11-26T00:05:13.372Z,20.80
2022-11-26T00:07:41.532Z,25.00
2022-11-26T00:10:15.135Z,21.00
2022-11-26T00:12:43.111Z,30.80
2022-11-26T00:15:16.001Z,32.20
2022-11-26T00:17:44.042Z,22.20
2022-11-26T00:20:13.492Z,32.25
2022-11-26T00:22:42.407Z,33.40
2022-11-26T00:25:17.695Z,30.80
2022-11-26T00:27:45.711Z,46.00
2022-11-26T00:30:18.161Z,34.00
2022-11-26T00:32:46.200Z,40.00
2022-11-26T00:35:15.729Z,29.20
2022-11-26T00:37:45.738Z,38.50
2022-11-26T00:40:21.290Z,34.50
2022-11-26T00:42:49.454Z,35.00
2022-11-26T00:45:18.943Z,28.80
2022-11-26T00:47:46.932Z,38.50
2022-11-26T00:50:17.580Z,46.25
2022-11-26T00:52:45.671Z,31.80
2022-11-26T00:55:19.120Z,34.60
2022-11-26T00:57:47.098Z,24.80
2022-11-26T01:00:17.153Z,23.80
2022-11-26T01:02:45.368Z,27.40
2022-11-26T01:05:13.428Z,27.75
2022-11-26T01:07:42.994Z,19.40
2022-11-26T01:10:16.950Z,26.80
2022-11-26T01:12:44.982Z,25.20
2022-11-26T01:15:13.042Z,32.75
2022-11-26T01:17:41.036Z,33.33
2022-11-26T01:20:22.809Z,42.20
2022-11-26T01:22:54.865Z,32.50
2022-11-26T01:25:23.052Z,33.00
2022-11-26T01:27:51.061Z,25.40
2022-11-26T01:30:21.160Z,30.20
2022-11-26T01:32:49.556Z,27.50
2022-11-26T01:35:17.692Z,38.00
2022-11-26T01:37:45.750Z,28.80
2022-11-26T01:40:54.395Z,36.00
2022-11-26T01:43:25.904Z,32.00
2022-11-26T01:45:53.975Z,33.25
2022-11-26T01:48:29.645Z,30.25
2022-11-26T01:51:02.647Z,34.75
2022-11-26T01:53:49.775Z,30.00
2022-11-26T01:56:22.060Z,31.00
2022-11-26T01:58:52.007Z,24.50
2022-11-26T02:01:20.120Z,28.20
2022-11-26T02:03:53.287Z,37.00
2022-11-26T02:06:24.596Z,38.00
2022-11-26T02:08:52.607Z,27.60
2022-11-26T02:11:23.116Z,27.00
2022-11-26T02:13:52.072Z,37.50
2022-11-26T02:16:26.050Z,26.60
2022-11-26T02:18:59.168Z,25.20
2022-11-26T02:21:27.821Z,33.80
2022-11-26T02:24:13.987Z,37.40
2022-11-26T02:27:15.630Z,29.25
2022-11-26T02:30:07.877Z,33.75
2022-11-26T02:32:42.160Z,30.00
2022-11-26T02:35:12.875Z,37.75
2022-11-26T02:37:43.505Z,43.25
2022-11-26T02:40:12.022Z,29.00
2022-11-26T02:42:40.029Z,28.60
2022-11-26T02:45:10.208Z,39.20
2022-11-26T02:47:39.024Z,30.60
2022-11-26T02:50:09.257Z,36.60
2022-11-26T02:52:37.258Z,35.80
2022-11-26T02:55:05.808Z,36.60
2022-11-26T02:57:33.960Z,27.00
2022-11-26T03:00:01.985Z,33.67
2022-11-26T03:02:35.882Z,29.40
2022-11-26T03:05:04.004Z,32.80
2022-11-26T03:07:32.248Z,36.00
2022-11-26T03:10:01.235Z,35.00
2022-11-26T03:12:29.404Z,27.80
2022-11-26T03:14:57.478Z,34.60
2022-11-26T03:17:25.474Z,23.00
2022-11-26T03:19:55.147Z,26.20
2022-11-26T03:22:23.159Z,29.00
2022-11-26T03:24:51.241Z,32.00
2022-11-26T03:27:19.253Z,28.00
2022-11-26T03:29:47.286Z,32.75
2022-11-26T03:32:15.290Z,32.75
2022-11-26T03:34:43.970Z,39.60
2022-11-26T03:37:13.387Z,34.00
2022-11-26T03:39:41.610Z,40.40
2022-11-26T03:42:09.662Z,24.50
2022-11-26T03:44:38.241Z,29.00
2022-11-26T03:47:06.532Z,27.25
2022-11-26T03:49:34.624Z,42.20
2022-11-26T03:52:02.644Z,24.75
2022-11-26T03:54:32.067Z,25.50
2022-11-26T03:57:00.096Z,32.80
2022-11-26T03:59:28.100Z,37.00
2022-11-26T04:01:56.249Z,37.00
2022-11-26T04:04:24.290Z,34.60
2022-11-26T04:06:52.318Z,33.40
2022-11-26T04:09:20.323Z,32.80
2022-11-26T04:11:49.779Z,34.00
2022-11-26T04:14:17.841Z,41.67
2022-11-26T04:16:45.927Z,29.80
2022-11-26T04:19:13.997Z,40.75
2022-11-26T04:21:42.025Z,29.00
2022-11-26T04:24:10.044Z,29.50
2022-11-26T04:26:38.115Z,30.40
2022-11-26T04:29:07.585Z,35.20
2022-11-26T04:31:35.669Z,29.00
2022-11-26T04:34:03.713Z,38.75
2022-11-26T04:36:32.010Z,44.75
2022-11-26T04:39:00.120Z,35.00
2022-11-26T04:41:28.161Z,23.25
2022-11-26T04:43:56.162Z,31.00
2022-11-26T04:46:25.533Z,28.00
2022-11-26T04:48:53.533Z,36.60
2022-11-26T04:51:21.556Z,33.80
2022-11-26T04:53:51.398Z,36.00
2022-11-26T04:56:22.686Z,31.00
2022-11-26T04:58:50.698Z,31.20
2022-11-26T05:01:18.788Z,25.25
2022-11-26T05:03:48.178Z,30.40
2022-11-26T05:06:16.248Z,33.25
2022-11-26T05:08:44.248Z,40.20
2022-11-26T05:11:12.292Z,30.80
2022-11-26T05:13:40.293Z,27.00
2022-11-26T05:16:08.800Z,34.40
2022-11-26T05:18:36.834Z,32.80
2022-11-26T05:21:07.709Z,34.75
2022-11-26T05:23:35.710Z,33.50
2022-11-26T05:26:03.729Z,28.20
2022-11-26T05:28:31.785Z,40.20
2022-11-26T05:31:00.333Z,32.80
2022-11-26T05:33:28.375Z,28.67
2022-11-26T05:35:56.450Z,29.40
2022-11-26T05:38:25.816Z,37.25
2022-11-26T05:40:53.833Z,29.75
2022-11-26T05:43:21.842Z,33.75
2022-11-26T05:45:49.949Z,31.50
2022-11-26T05:48:17.993Z,37.00
2022-11-26T05:50:48.997Z,30.40
2022-11-26T05:53:21.099Z,42.40
2022-11-26T05:55:50.513Z,36.50
2022-11-26T05:58:18.518Z,42.40
2022-11-26T06:00:47.182Z,42.25
2022-11-26T06:03:19.775Z,32.60
2022-11-26T06:05:48.457Z,36.80
2022-11-26T06:08:16.469Z,32.60
2022-11-26T06:10:44.536Z,34.40
2022-11-26T06:13:14.188Z,37.00
2022-11-26T06:15:42.351Z,26.25
2022-11-26T06:18:10.358Z,41.60
2022-11-26T06:20:38.427Z,42.33
2022-11-26T06:23:06.439Z,35.50
2022-11-26T06:25:34.639Z,28.25
2022-11-26T06:28:02.812Z,34.80
2022-11-26T06:30:32.194Z,35.20
2022-11-26T06:33:00.192Z,29.75
2022-11-26T06:35:28.225Z,31.80
2022-11-26T06:37:56.230Z,25.80
2022-11-26T06:40:24.267Z,29.00
2022-11-26T06:42:52.646Z,24.80
2022-11-26T06:45:20.706Z,30.60
2022-11-26T06:47:51.125Z,31.40
2022-11-26T06:50:20.162Z,23.80
2022-11-26T06:52:48.704Z,31.40
2022-11-26T06:55:16.870Z,33.60
2022-11-26T06:57:44.860Z,21.40
2022-11-26T07:00:13.984Z,25.50
2022-11-26T07:02:42.662Z,29.50
2022-11-26T07:05:12.161Z,29.33
2022-11-26T07:07:40.436Z,30.75
2022-11-26T07:10:09.301Z,19.60
2022-11-26T07:12:37.284Z,23.00
2022-11-26T07:15:06.124Z,29.40
2022-11-26T07:17:34.165Z,25.00
2022-11-26T07:20:02.172Z,21.60
2022-11-26T07:22:31.545Z,20.80
2022-11-26T07:24:59.550Z,22.80
2022-11-26T07:27:27.569Z,25.00
2022-11-26T07:29:55.576Z,24.75
2022-11-26T07:32:23.758Z,17.50
2022-11-26T07:34:51.762Z,15.00
2022-11-26T07:37:19.794Z,19.00
2022-11-26T07:39:49.805Z,19.80
2022-11-26T07:42:17.836Z,15.60
2022-11-26T07:44:45.831Z,17.00
2022-11-26T07:47:13.889Z,11.80
2022-11-26T07:49:41.899Z,15.00
2022-11-26T07:52:09.925Z,15.25
2022-11-26T07:54:38.079Z,13.80
2022-11-26T07:57:07.680Z,11.40
2022-11-26T07:59:35.690Z,14.50
2022-11-26T08:02:03.805Z,18.00
2022-11-26T08:04:31.848Z,17.40
2022-11-26T08:06:59.872Z,17.00
2022-11-26T08:09:27.888Z,15.00
2022-11-26T08:11:55.909Z,13.00
2022-11-26T08:14:25.315Z,14.60
2022-11-26T08:16:53.362Z,10.00
2022-11-26T08:19:21.561Z,23.25
2022-11-26T08:21:49.592Z,11.80
2022-11-26T08:24:19.046Z,17.33
2022-11-26T08:26:47.073Z,11.00
2022-11-26T08:29:15.144Z,11.00
2022-11-26T08:31:46.423Z,11.20
2022-11-26T08:34:15.630Z,13.80
2022-11-26T08:36:43.654Z,13.80
2022-11-26T08:39:13.286Z,11.50
2022-11-26T08:41:41.317Z,13.20
2022-11-26T08:44:09.313Z,13.20
2022-11-26T08:46:37.663Z,12.60
2022-11-26T08:49:07.224Z,10.00
2022-11-26T08:51:35.441Z,15.50
2022-11-26T08:54:03.462Z,15.40
2022-11-26T08:56:31.545Z,15.20
2022-11-26T08:58:59.556Z,12.50
2022-11-26T09:01:28.541Z,11.40
2022-11-26T09:03:57.421Z,12.00
2022-11-26T09:06:28.399Z,9.00
2022-11-26T09:09:14.740Z,15.00
2022-11-26T09:11:45.657Z,13.00
2022-11-26T09:14:13.857Z,13.00
2022-11-26T09:16:41.968Z,14.80
2022-11-26T09:19:09.999Z,12.60
2022-11-26T09:21:39.481Z,11.00
2022-11-26T09:24:08.075Z,12.00
2022-11-26T09:26:36.181Z,16.00
2022-11-26T09:29:04.574Z,9.60
2022-11-26T09:31:32.774Z,17.00
2022-11-26T09:34:01.565Z,12.40
2022-11-26T09:36:29.801Z,8.50
2022-11-26T09:38:59.616Z,9.50
2022-11-26T09:41:39.714Z,16.40
2022-11-26T09:44:23.262Z,7.20
2022-11-26T09:47:11.509Z,10.00
2022-11-26T09:49:44.749Z,6.00
2022-11-26T09:52:12.772Z,8.25
2022-11-26T09:54:42.164Z,4.75
2022-11-26T09:57:17.239Z,15.75
2022-11-26T09:59:45.498Z,6.50
2022-11-26T10:02:13.615Z,11.60
2022-11-26T10:04:41.919Z,10.80
2022-11-26T10:07:15.662Z,9.00
2022-11-26T10:09:50.910Z,10.25
2022-11-26T10:12:26.577Z,8.40
2022-11-26T10:14:56.885Z,12.75
2022-11-26T10:17:30.803Z,10.00
2022-11-26T10:20:30.373Z,10.60
2022-11-26T10:22:59.662Z,10.75
2022-11-26T10:25:32.454Z,9.75
2022-11-26T10:28:00.521Z,10.40
2022-11-26T10:30:30.135Z,10.40
2022-11-26T10:32:59.482Z,11.50
2022-11-26T10:35:29.097Z,8.00
2022-11-26T10:37:57.454Z,14.00
2022-11-26T10:40:26.558Z,12.00
2022-11-26T10:43:02.161Z,9.00
2022-11-26T10:45:37.404Z,12.00
2022-11-26T10:48:21.920Z,12.75
2022-11-26T10:51:04.333Z,5.20
2022-11-26T10:53:35.577Z,12.20
2022-11-26T10:56:05.480Z,5.40
2022-11-26T10:58:38.773Z,9.75
2022-11-26T11:01:07.079Z,8.00
2022-11-26T11:06:36.188Z,13.00
2022-11-26T11:09:14.497Z,5.00
2022-11-26T11:11:42.501Z,12.00
2022-11-26T11:14:16.426Z,9.80
2022-11-26T11:16:46.315Z,9.00
2022-11-26T11:19:26.419Z,10.60
2022-11-26T11:21:54.457Z,14.20
2022-11-26T11:24:23.252Z,11.00
2022-11-26T11:26:53.481Z,12.00
2022-11-26T11:29:27.837Z,12.00
2022-11-26T11:31:56.080Z,20.40
2022-11-26T11:34:28.387Z,9.00
2022-11-26T11:37:00.209Z,12.00
2022-11-26T11:39:30.122Z,11.50
2022-11-26T11:41:58.995Z,13.00
2022-11-26T11:44:31.287Z,21.00
2022-11-26T11:47:12.965Z,11.00
2022-11-26T11:49:50.280Z,17.75
2022-11-26T11:52:23.513Z,17.00
2022-11-26T11:54:57.570Z,17.00
2022-11-26T11:57:39.065Z,16.50
2022-11-26T12:00:13.506Z,10.20
2022-11-26T12:02:58.204Z,14.00
2022-11-26T12:05:42.217Z,12.00
2022-11-26T12:08:18.338Z,9.40
2022-11-26T12:10:49.526Z,14.00
2022-11-26T12:13:17.566Z,18.60
2022-11-26T12:15:51.812Z,18.00
2022-11-26T12:18:23.125Z,12.50
2022-11-26T12:20:53.363Z,17.40
2022-11-26T12:23:27.713Z,16.00
2022-11-26T12:25:57.789Z,13.60
2022-11-26T12:28:26.839Z,15.50
2022-11-26T12:30:58.320Z,11.00
2022-11-26T12:33:28.865Z,12.20
2022-11-26T12:35:59.308Z,11.20
2022-11-26T12:38:29.130Z,11.00
2022-11-26T12:41:00.625Z,17.40
2022-11-26T12:43:31.214Z,8.20
2022-11-26T12:46:02.591Z,16.50
2022-11-26T12:48:36.472Z,11.40
2022-11-26T12:51:12.036Z,9.00
2022-11-26T12:53:43.521Z,10.00
2022-11-26T12:56:15.846Z,11.20
2022-11-26T12:58:48.833Z,11.40
2022-11-26T13:01:18.196Z,8.00
2022-11-26T13:03:46.291Z,8.00
2022-11-26T13:06:20.389Z,8.80
2022-11-26T13:08:51.293Z,11.00
2022-11-26T13:11:27.610Z,9.00
2022-11-26T13:13:59.606Z,11.40
2022-11-26T13:16:34.873Z,10.00
2022-11-26T13:19:06.954Z,12.00
2022-11-26T13:21:54.752Z,12.50
2022-11-26T13:24:33.143Z,10.00
2022-11-26T13:27:09.895Z,15.00
2022-11-26T13:29:57.565Z,14.20
2022-11-26T13:32:49.994Z,11.80
2022-11-26T13:35:23.142Z,11.60
2022-11-26T13:38:11.770Z,11.00
2022-11-26T13:40:50.895Z,18.00
2022-11-26T13:44:04.380Z,13.00
2022-11-26T13:46:32.458Z,11.00
2022-11-26T13:49:02.947Z,11.67
2022-11-26T13:51:33.806Z,13.80
2022-11-26T13:54:05.645Z,15.80
2022-11-26T13:56:34.037Z,14.75
2022-11-26T13:59:02.781Z,18.00
2022-11-26T14:01:36.904Z,16.00
2022-11-26T14:04:07.905Z,13.60
2022-11-26T14:06:36.057Z,13.40
2022-11-26T14:09:05.705Z,17.00
2022-11-26T14:11:57.020Z,14.25
2022-11-26T14:14:32.225Z,14.75
2022-11-26T14:17:23.375Z,13.33
2022-11-26T14:20:12.138Z,15.00
2022-11-26T14:22:40.177Z,14.00
2022-11-26T14:25:10.549Z,12.50
2022-11-26T14:27:41.171Z,18.40
2022-11-26T14:30:28.328Z,18.60
2022-11-26T14:33:02.733Z,19.75
2022-11-26T14:35:34.598Z,22.60
2022-11-26T14:38:04.594Z,23.00
2022-11-26T14:40:33.664Z,22.00
2022-11-26T14:43:15.822Z,21.00
2022-11-26T14:45:44.211Z,30.00
2022-11-26T14:48:25.437Z,34.80
2022-11-26T14:50:55.365Z,33.00
2022-11-26T14:53:24.424Z,22.50
2022-11-26T14:55:52.464Z,31.75
2022-11-26T14:58:21.959Z,25.50
2022-11-26T15:01:03.008Z,28.00
2022-11-26T15:03:31.471Z,20.00
2022-11-26T15:06:00.958Z,21.00
2022-11-26T15:08:29.018Z,22.25
2022-11-26T15:10:58.320Z,19.50
2022-11-26T15:13:29.196Z,18.50
2022-11-26T15:15:57.979Z,19.20
2022-11-26T15:18:29.165Z,21.25
2022-11-26T15:20:57.174Z,19.40
2022-11-26T15:23:28.993Z,22.40
2022-11-26T15:25:57.141Z,20.75
2022-11-26T15:28:25.351Z,26.25
2022-11-26T15:30:55.693Z,25.80
2022-11-26T15:33:23.998Z,16.40
2022-11-26T15:35:56.825Z,44.80
2022-11-26T15:38:27.002Z,43.67
2022-11-26T15:40:56.390Z,43.20
2022-11-26T15:43:27.978Z,34.00
2022-11-26T15:45:57.390Z,32.00
2022-11-26T15:48:44.139Z,27.40
2022-11-26T15:51:23.841Z,32.50
2022-11-26T15:53:53.225Z,29.25
2022-11-26T15:56:21.882Z,27.80
2022-11-26T15:58:51.422Z,18.00
2022-11-26T16:01:21.117Z,25.80
2022-11-26T16:03:50.032Z,25.00
2022-11-26T16:06:42.317Z,18.40
2022-11-26T16:09:27.876Z,28.00
2022-11-26T16:11:59.909Z,24.00
2022-11-26T16:14:33.206Z,30.00
2022-11-26T16:17:08.042Z,18.00
2022-11-26T16:19:37.148Z,19.00
2022-11-26T16:22:06.111Z,26.00
2022-11-26T16:24:39.035Z,28.00
2022-11-26T16:27:07.959Z,24.00
2022-11-26T16:29:36.856Z,21.50
2022-11-26T16:32:05.139Z,19.00
2022-11-26T16:34:33.176Z,18.80
2022-11-26T16:37:02.463Z,19.80
2022-11-26T16:39:33.816Z,21.00
2022-11-26T16:42:10.565Z,19.50
2022-11-26T16:44:38.848Z,21.00
2022-11-26T16:47:09.460Z,22.80
2022-11-26T16:49:37.490Z,17.25
2022-11-26T16:52:09.717Z,19.60
2022-11-26T16:54:38.980Z,34.50
2022-11-26T16:57:11.749Z,35.25
2022-11-26T16:59:40.039Z,36.50
2022-11-26T17:02:15.158Z,35.40
2022-11-26T17:04:43.464Z,24.60
2022-11-26T17:07:13.585Z,32.25
2022-11-26T17:09:41.994Z,24.50
2022-11-26T17:12:15.818Z,39.80
2022-11-26T17:14:44.091Z,28.20
2022-11-26T17:17:13.652Z,26.50
2022-11-26T17:19:42.021Z,22.00
2022-11-26T17:22:10.224Z,34.00
2022-11-26T17:24:38.526Z,27.75
2022-11-26T17:27:07.606Z,28.50
2022-11-26T17:29:42.762Z,27.50
2022-11-26T17:32:12.172Z,35.00
2022-11-26T17:34:40.193Z,34.40
2022-11-26T17:37:11.138Z,26.60
2022-11-26T17:39:39.359Z,34.25
2022-11-26T17:42:07.584Z,25.75
2022-11-26T17:44:36.970Z,33.40
2022-11-26T17:47:20.311Z,29.20
2022-11-26T17:49:48.507Z,40.50
2022-11-26T17:52:16.687Z,33.00
2022-11-26T17:54:45.105Z,43.75
2022-11-26T17:57:13.243Z,39.25
2022-11-26T17:59:43.059Z,30.60
2022-11-26T18:02:11.485Z,25.80
2022-11-26T18:04:39.574Z,19.00
2022-11-26T18:07:19.387Z,24.60
2022-11-26T18:09:47.885Z,25.75
2022-11-26T18:12:24.692Z,25.00
2022-11-26T18:14:55.074Z,27.33
2022-11-26T18:17:23.108Z,27.75
2022-11-26T18:19:51.364Z,27.20
2022-11-26T18:22:20.559Z,32.50
2022-11-26T18:24:56.590Z,34.60
2022-11-26T18:27:26.735Z,24.25
2022-11-26T18:29:56.113Z,29.60
2022-11-26T18:32:24.109Z,27.40
2022-11-26T18:34:52.201Z,24.00
2022-11-26T18:37:20.214Z,31.50
2022-11-26T18:39:48.333Z,19.00
2022-11-26T18:42:35.929Z,29.80
2022-11-26T18:45:06.736Z,22.00
2022-11-26T18:47:34.746Z,27.50
2022-11-26T18:50:02.802Z,27.80
2022-11-26T18:52:30.853Z,26.40
2022-11-26T18:55:00.048Z,33.20
2022-11-26T18:57:28.488Z,33.60
2022-11-26T18:59:56.509Z,34.00
2022-11-26T19:02:26.217Z,24.00
2022-11-26T19:04:54.318Z,31.75
2022-11-26T19:07:22.334Z,26.00
2022-11-26T19:09:50.408Z,65.00
2022-11-26T19:12:18.415Z,51.00
2022-11-26T19:14:46.440Z,50.75
2022-11-26T19:17:14.471Z,53.00
2022-11-26T19:19:43.902Z,50.50
2022-11-26T19:22:11.910Z,35.80
2022-11-26T19:24:39.932Z,47.67
2022-11-26T19:27:08.918Z,35.20
2022-11-26T19:29:36.993Z,28.40
2022-11-26T19:32:05.106Z,36.00
2022-11-26T19:34:33.132Z,26.20
2022-11-26T19:37:02.487Z,56.00
2022-11-26T19:39:30.616Z,64.00
2022-11-26T19:41:58.651Z,51.60
2022-11-26T19:44:26.674Z,33.60
2022-11-26T19:46:54.687Z,33.50
2022-11-26T19:49:22.744Z,27.60
2022-11-26T19:51:50.763Z,32.75
2022-11-26T19:54:20.151Z,34.00
2022-11-26T19:56:48.409Z,32.00
2022-11-26T19:59:16.721Z,32.25
2022-11-26T20:01:44.833Z,28.60
2022-11-26T20:04:14.064Z,34.75
2022-11-26T20:06:42.126Z,28.00
2022-11-26T20:09:10.488Z,27.60
2022-11-26T20:11:40.535Z,33.00
2022-11-26T20:14:10.658Z,34.25
2022-11-26T20:16:39.604Z,27.25
2022-11-26T20:19:07.622Z,24.80
2022-11-26T20:21:36.435Z,22.00
2022-11-26T20:24:06.380Z,24.50
2022-11-26T20:26:35.271Z,44.75
2022-11-26T20:29:05.915Z,29.75
2022-11-26T20:31:34.106Z,21.00
2022-11-26T20:34:02.980Z,32.40
2022-11-26T20:36:31.066Z,28.00
2022-11-26T20:39:00.954Z,26.20
2022-11-26T20:41:29.243Z,27.50
2022-11-26T20:43:59.448Z,26.50
2022-11-26T20:46:29.188Z,24.60
2022-11-26T20:48:57.645Z,36.67
2022-11-26T20:51:25.865Z,29.00
2022-11-26T20:53:54.096Z,49.40
2022-11-26T20:56:22.588Z,36.00
2022-11-26T20:58:50.816Z,40.50
2022-11-26T21:01:19.720Z,25.00
2022-11-26T21:03:49.148Z,14.00
2022-11-26T21:06:18.583Z,18.00
2022-11-26T21:08:46.649Z,25.00
2022-11-26T21:11:15.718Z,24.00
2022-11-26T21:13:43.836Z,21.00
2022-11-26T21:16:13.778Z,26.60
2022-11-26T21:18:41.801Z,20.80
2022-11-26T21:21:11.777Z,23.50
2022-11-26T21:23:39.961Z,17.20
2022-11-26T21:26:08.328Z,22.20
2022-11-26T21:28:36.338Z,20.40
2022-11-26T21:31:07.995Z,26.20
2022-11-26T21:33:36.029Z,22.80
2022-11-26T21:36:07.859Z,23.60
2022-11-26T21:38:37.717Z,20.40
2022-11-26T21:41:06.321Z,22.40
2022-11-26T21:43:34.334Z,24.25
2022-11-26T21:46:03.855Z,29.75
2022-11-26T21:48:32.122Z,24.40
2022-11-26T21:51:00.205Z,31.80
2022-11-26T21:53:28.207Z,28.67
2022-11-26T21:55:57.600Z,27.80
2022-11-26T21:58:25.632Z,27.60
2022-11-26T22:00:53.763Z,25.00
2022-11-26T22:03:21.861Z,31.50
2022-11-26T22:05:49.898Z,31.00
2022-11-26T22:08:17.896Z,22.50
2022-11-26T22:10:46.002Z,26.00
2022-11-26T22:13:15.415Z,23.80
2022-11-26T22:15:44.479Z,31.00
2022-11-26T22:18:12.540Z,30.60
2022-11-26T22:20:40.608Z,27.00
2022-11-26T22:23:08.615Z,21.60
2022-11-26T22:25:36.665Z,31.75
2022-11-26T22:28:04.795Z,30.20
2022-11-26T22:30:34.177Z,29.40
2022-11-26T22:33:03.841Z,25.00
2022-11-26T22:35:32.706Z,20.75
2022-11-26T22:38:00.719Z,28.50
2022-11-26T22:40:28.760Z,21.00
2022-11-26T22:42:58.724Z,26.80
2022-11-26T22:45:26.843Z,28.60
2022-11-26T22:47:56.206Z,33.25
2022-11-26T22:50:24.289Z,22.00
2022-11-26T22:52:52.344Z,26.00
2022-11-26T22:55:20.370Z,22.50
2022-11-26T22:57:48.364Z,23.75
2022-11-26T23:00:37.466Z,18.75
2022-11-26T23:03:07.056Z,18.60
2022-11-26T23:05:37.781Z,21.20
2022-11-26T23:08:05.994Z,25.00
2022-11-26T23:10:34.042Z,21.00
2022-11-26T23:13:02.038Z,20.67
2022-11-26T23:15:30.078Z,18.00
2022-11-26T23:17:58.086Z,32.00
2022-11-26T23:20:27.477Z,23.00
2022-11-26T23:22:55.482Z,27.50
2022-11-26T23:25:23.500Z,23.50
2022-11-26T23:27:51.499Z,20.50
2022-11-26T23:30:20.254Z,50.00
2022-11-26T23:32:48.252Z,36.00
2022-11-26T23:35:16.382Z,60.75
2022-11-26T23:37:45.732Z,50.40
2022-11-26T23:40:14.516Z,73.75
2022-11-26T23:42:42.532Z,62.00
2022-11-26T23:45:11.765Z,51.50
2022-11-26T23:47:40.858Z,39.60
2022-11-26T23:50:09.279Z,56.00
2022-11-26T23:52:37.285Z,41.00
2022-11-26T23:55:07.507Z,43.00
2022-11-26T23:57:35.529Z,50.00
